Time;durP1;ratioP1;P1;durP2;ratioP2;P2;SDS_P1;SDS_P2;PMS_P1;PMS_P2;Temp;Humidity;BMP_temperature;BMP_pressure;BME280_temperature;BME280_humidity;BME280_pressure;Samples;Min_cycle;Max_cycle;Signal;HPM_P1;HPM_P2
2024/03/30 00:03:57;;;;;;;1.70;1.03;;;;;10.10;99069.00;;;;10346824;28;20216;-81
2024/03/30 00:08:58;;;;;;;2.33;0.90;;;;;10.00;99064.00;;;;10322486;28;20226;-81
2024/03/30 00:14:00;;;;;;;1.97;0.90;;;;;10.00;99063.00;;;;10359797;28;20231;-81
2024/03/30 00:19:03;;;;;;;2.77;0.90;;;;;10.00;99053.00;;;;10335408;28;20219;-81
2024/03/30 00:24:04;;;;;;;1.53;0.97;;;;;10.00;99050.00;;;;10347733;28;20586;-81
2024/03/30 00:29:05;;;;;;;2.03;1.10;;;;;10.00;99054.00;;;;10355921;28;20289;-81
2024/03/30 00:34:07;;;;;;;3.37;1.33;;;;;10.00;99050.00;;;;10381395;28;20344;-81
2024/03/30 00:39:11;;;;;;;1.67;0.80;;;;;10.00;99047.00;;;;10328189;28;20219;-82
2024/03/30 00:44:12;;;;;;;2.63;0.97;;;;;10.00;99040.00;;;;10354311;28;20222;-82
2024/03/30 00:49:13;;;;;;;2.10;0.87;;;;;10.00;99048.00;;;;10343470;28;20683;-81
2024/03/30 00:54:14;;;;;;;1.17;0.80;;;;;10.00;99056.00;;;;10352091;28;21108;-84
2024/03/30 00:59:15;;;;;;;0.93;0.60;;;;;9.90;99036.00;;;;10339915;28;20663;-84
2024/03/30 01:04:17;;;;;;;1.30;1.10;;;;;9.80;99044.00;;;;10352875;28;20216;-86
2024/03/30 01:09:17;;;;;;;2.03;1.33;;;;;9.80;99085.00;;;;10337542;28;20219;-87
2024/03/30 01:14:21;;;;;;;1.93;1.37;;;;;9.60;99075.00;;;;10341780;28;20829;-88
2024/03/30 01:19:22;;;;;;;3.07;1.50;;;;;9.50;99070.00;;;;10328736;28;20234;-88
2024/03/30 01:24:23;;;;;;;2.83;1.67;;;;;9.40;99073.00;;;;10332978;28;20215;-88
2024/03/30 01:29:24;;;;;;;2.13;1.47;;;;;9.30;99069.00;;;;10351631;28;20211;-88
2024/03/30 01:34:25;;;;;;;3.27;2.10;;;;;9.30;99058.00;;;;10360311;28;20578;-87
2024/03/30 01:39:26;;;;;;;2.43;1.70;;;;;9.20;99055.00;;;;10340480;28;20572;-87
2024/03/30 01:44:27;;;;;;;2.77;1.60;;;;;9.20;99042.00;;;;10363853;28;20228;-88
2024/03/30 01:49:28;;;;;;;2.57;1.80;;;;;9.30;99037.00;;;;10339343;28;20310;-87
2024/03/30 01:54:30;;;;;;;4.60;2.27;;;;;9.30;99030.00;;;;10364135;28;20222;-87
2024/03/30 01:59:31;;;;;;;3.37;2.10;;;;;9.30;99033.00;;;;10377987;28;20214;-88
2024/03/30 02:04:32;;;;;;;2.10;1.73;;;;;9.30;99018.00;;;;10351949;28;20227;-81
2024/03/30 02:09:35;;;;;;;4.20;2.10;;;;;9.20;99017.00;;;;10346570;28;20225;-82
2024/03/30 02:14:36;;;;;;;2.30;1.93;;;;;9.20;99019.00;;;;10353051;28;20247;-82
2024/03/30 02:19:43;;;;;;;4.03;2.30;;;;;9.20;99025.00;;;;10349910;28;20231;-83
2024/03/30 02:24:45;;;;;;;5.87;2.63;;;;;9.20;99007.00;;;;10348415;28;20227;-83
2024/03/30 02:29:51;;;;;;;3.23;2.83;;;;;9.20;98983.00;;;;10347421;28;20231;-82
2024/03/30 02:34:52;;;;;;;4.00;3.13;;;;;9.20;98995.00;;;;10345296;28;20226;-81
2024/03/30 02:39:53;;;;;;;3.90;3.20;;;;;9.20;99001.00;;;;10347084;28;20269;-83
2024/03/30 02:44:54;;;;;;;4.97;2.87;;;;;9.20;98992.00;;;;10372289;28;20698;-82
2024/03/30 02:49:55;;;;;;;3.23;2.93;;;;;9.20;98985.00;;;;10334888;28;20932;-81
2024/03/30 02:54:56;;;;;;;4.70;3.20;;;;;9.20;98987.00;;;;10362898;28;20988;-81
2024/03/30 02:59:57;;;;;;;3.97;3.10;;;;;9.20;98984.00;;;;10382740;28;20222;-81
2024/03/30 03:04:58;;;;;;;3.40;3.00;;;;;9.10;98976.00;;;;10345165;28;20221;-81
2024/03/30 03:09:59;;;;;;;6.37;3.70;;;;;9.10;98967.00;;;;10334486;28;20279;-82
2024/03/30 03:15:04;;;;;;;4.37;3.37;;;;;9.10;98957.00;;;;10357851;28;20227;-81
2024/03/30 03:20:05;;;;;;;4.80;4.30;;;;;9.10;98963.00;;;;10326717;28;20220;-81
2024/03/30 03:25:07;;;;;;;3.47;2.83;;;;;9.10;98960.00;;;;10339020;28;20583;-81
2024/03/30 03:30:08;;;;;;;3.53;2.73;;;;;9.10;98937.00;;;;10369784;28;20215;-81
2024/03/30 03:35:09;;;;;;;5.30;3.00;;;;;9.10;98944.00;;;;10358138;28;20219;-80
2024/03/30 03:40:10;;;;;;;4.10;3.17;;;;;9.10;98929.00;;;;10358057;28;20223;-80
2024/03/30 03:45:11;;;;;;;3.73;2.80;;;;;9.00;98924.00;;;;10345056;28;20245;-81
2024/03/30 03:50:12;;;;;;;3.13;2.83;;;;;9.00;98927.00;;;;10342269;28;20811;-80
2024/03/30 03:55:13;;;;;;;4.33;3.03;;;;;9.00;98919.00;;;;10352820;28;20273;-80
2024/03/30 04:00:14;;;;;;;7.27;3.07;;;;;9.00;98921.00;;;;10369829;28;20324;-81
2024/03/30 04:05:15;;;;;;;4.07;3.00;;;;;9.00;98923.00;;;;10344233;28;20214;-80
2024/03/30 04:10:17;;;;;;;5.07;3.03;;;;;9.00;98932.00;;;;10342194;28;20265;-79
2024/03/30 04:15:18;;;;;;;3.63;3.10;;;;;8.90;98910.00;;;;10350040;28;20225;-80
2024/03/30 04:20:19;;;;;;;4.40;3.40;;;;;8.80;98921.00;;;;10355682;28;20232;-76
2024/03/30 04:25:20;;;;;;;4.73;3.70;;;;;8.80;98914.00;;;;10387288;28;20870;-77
2024/03/30 04:30:22;;;;;;;4.33;3.37;;;;;8.80;98903.00;;;;10355610;28;20235;-76
2024/03/30 04:35:23;;;;;;;4.47;3.40;;;;;8.80;98896.00;;;;10362175;28;20219;-76
2024/03/30 04:40:26;;;;;;;4.37;3.90;;;;;8.90;98902.00;;;;10358559;28;20234;-76
2024/03/30 04:45:27;;;;;;;7.33;5.10;;;;;8.90;98898.00;;;;10343654;28;20879;-76
2024/03/30 04:50:28;;;;;;;6.83;4.40;;;;;8.90;98895.00;;;;10370361;28;20268;-78
2024/03/30 04:55:29;;;;;;;6.60;4.93;;;;;8.90;98889.00;;;;10342925;28;20226;-79
2024/03/30 05:00:33;;;;;;;5.67;4.60;;;;;8.90;98875.00;;;;10338018;28;20590;-76
2024/03/30 05:05:34;;;;;;;5.40;4.17;;;;;8.90;98878.00;;;;10344343;28;20228;-80
2024/03/30 05:10:39;;;;;;;7.97;5.17;;;;;8.90;98870.00;;;;10346322;28;20227;-77
2024/03/30 05:15:42;;;;;;;7.03;4.23;;;;;8.90;98877.00;;;;10363921;28;20568;-77
2024/03/30 05:25:46;;;;;;;8.50;6.37;;;;;8.80;98864.00;;;;10361071;28;20229;-76
2024/03/30 05:30:48;;;;;;;8.07;5.90;;;;;8.90;98864.00;;;;10326342;28;20229;-82
2024/03/30 05:35:50;;;;;;;10.80;6.60;;;;;8.90;98875.00;;;;10361597;28;20250;-80
2024/03/30 05:40:52;;;;;;;8.40;6.23;;;;;8.90;98853.00;;;;10345445;28;20223;-80
2024/03/30 05:45:56;;;;;;;7.83;5.77;;;;;8.90;98867.00;;;;10345712;28;20662;-81
2024/03/30 05:50:57;;;;;;;11.90;6.83;;;;;8.90;98884.00;;;;10346718;28;20236;-80
2024/03/30 05:55:58;;;;;;;8.27;6.53;;;;;8.90;98878.00;;;;10351502;28;20232;-80
2024/03/30 06:00:59;;;;;;;10.67;7.60;;;;;8.90;98878.00;;;;10345069;28;20222;-81
2024/03/30 06:06:01;;;;;;;10.87;7.20;;;;;8.90;98877.00;;;;10369809;28;20226;-80
2024/03/30 06:11:02;;;;;;;8.83;7.57;;;;;8.80;98886.00;;;;10337216;28;20231;-80
2024/03/30 06:16:03;;;;;;;12.17;8.60;;;;;8.80;98877.00;;;;10371101;28;21077;-78
2024/03/30 06:21:05;;;;;;;11.40;8.67;;;;;8.90;98869.00;;;;10356297;28;20293;-78
2024/03/30 06:26:05;;;;;;;11.00;8.60;;;;;8.90;98877.00;;;;10374716;28;20269;-79
2024/03/30 06:31:08;;;;;;;11.10;8.73;;;;;8.80;98866.00;;;;10354617;28;20675;-79
2024/03/30 06:36:09;;;;;;;24.33;14.57;;;;;8.80;98867.00;;;;10339924;28;20219;-79
2024/03/30 06:46:29;;;;;;;13.73;10.77;;;;;9.00;98860.00;;;;10358408;28;20227;-78
2024/03/30 06:51:30;;;;;;;13.50;10.23;;;;;9.00;98871.00;;;;10351912;28;20956;-79
2024/03/30 06:56:31;;;;;;;13.47;10.47;;;;;8.90;98870.00;;;;10378272;28;20261;-79
2024/03/30 07:01:33;;;;;;;13.17;9.53;;;;;8.90;98876.00;;;;10335254;28;20242;-79
2024/03/30 07:06:34;;;;;;;11.97;9.60;;;;;8.80;98864.00;;;;10343277;28;20217;-78
2024/03/30 07:11:35;;;;;;;11.53;8.80;;;;;8.80;98870.00;;;;10371061;28;20598;-78
2024/03/30 07:16:36;;;;;;;12.57;9.17;;;;;8.80;98860.00;;;;10358414;28;20262;-78
2024/03/30 07:21:37;;;;;;;11.30;9.53;;;;;8.90;98871.00;;;;10327195;28;20211;-79
2024/03/30 07:26:38;;;;;;;11.07;7.97;;;;;8.80;98870.00;;;;10343378;28;21125;-78
2024/03/30 07:31:39;;;;;;;11.63;7.70;;;;;9.00;98873.00;;;;10361171;28;20293;-78
2024/03/30 07:36:39;;;;;;;14.73;7.50;;;;;8.90;98865.00;;;;10353669;28;21219;-78
2024/03/30 07:41:41;;;;;;;11.83;8.33;;;;;8.90;98862.00;;;;10356326;28;20254;-78
2024/03/30 07:46:41;;;;;;;10.97;8.87;;;;;8.80;98861.00;;;;10369839;28;20306;-78
2024/03/30 07:51:42;;;;;;;10.17;8.10;;;;;8.80;98831.00;;;;10331414;28;20260;-80
2024/03/30 07:57:01;;;;;;;12.07;9.60;;;;;8.80;98829.00;;;;10351952;28;20230;-80
2024/03/30 08:02:03;;;;;;;15.87;11.17;;;;;8.90;98832.00;;;;10331638;28;20221;-80
2024/03/30 08:07:04;;;;;;;19.63;12.03;;;;;8.90;98839.00;;;;10310675;28;20219;-80
2024/03/30 08:12:05;;;;;;;19.60;13.30;;;;;9.00;98848.00;;;;10324081;28;20313;-80
2024/03/30 08:17:06;;;;;;;17.43;12.67;;;;;8.90;98847.00;;;;10311724;28;20255;-80
2024/03/30 08:22:18;;;;;;;16.63;11.97;;;;;8.90;98855.00;;;;10343733;28;20620;-79
2024/03/30 08:27:19;;;;;;;17.07;12.67;;;;;8.90;98860.00;;;;10352661;28;20224;-79
2024/03/30 08:32:20;;;;;;;15.67;12.43;;;;;8.90;98862.00;;;;10364287;28;20219;-79
2024/03/30 08:37:22;;;;;;;16.93;12.73;;;;;8.90;98865.00;;;;10340525;28;20613;-79
2024/03/30 08:42:23;;;;;;;17.93;12.87;;;;;8.90;98866.00;;;;10330611;28;20227;-79
2024/03/30 08:47:24;;;;;;;17.33;12.73;;;;;8.90;98865.00;;;;10362191;28;20297;-79
2024/03/30 08:52:25;;;;;;;17.07;12.97;;;;;8.90;98856.00;;;;10334881;28;20244;-79
2024/03/30 08:57:26;;;;;;;18.57;13.50;;;;;8.90;98861.00;;;;10342155;28;20226;-79
2024/03/30 09:02:31;;;;;;;17.90;12.57;;;;;9.10;98860.00;;;;10336031;28;20576;-75
2024/03/30 09:07:32;;;;;;;18.63;13.30;;;;;9.20;98854.00;;;;10364215;28;20235;-77
2024/03/30 09:12:33;;;;;;;21.80;13.97;;;;;9.20;98851.00;;;;10353771;28;20230;-76
2024/03/30 09:17:34;;;;;;;18.10;13.30;;;;;9.20;98854.00;;;;10336164;28;20223;-75
2024/03/30 09:22:35;;;;;;;17.77;13.07;;;;;9.20;98857.00;;;;10337310;28;20311;-77
2024/03/30 09:27:36;;;;;;;24.17;14.87;;;;;9.10;98863.00;;;;10356760;28;20221;-76
2024/03/30 09:32:41;;;;;;;21.10;15.07;;;;;9.20;98880.00;;;;10347740;28;20810;-76
2024/03/30 09:37:42;;;;;;;27.67;16.17;;;;;9.20;98898.00;;;;10376847;28;20678;-76
2024/03/30 09:42:44;;;;;;;22.57;15.77;;;;;9.30;98901.00;;;;10359326;28;20215;-76
2024/03/30 09:47:48;;;;;;;21.80;15.33;;;;;9.40;98890.00;;;;10363370;28;20289;-75
2024/03/30 09:52:51;;;;;;;26.10;16.67;;;;;9.60;98909.00;;;;10375009;28;20223;-78
2024/03/30 09:57:54;;;;;;;25.70;17.57;;;;;9.80;98906.00;;;;10334417;28;20215;-79
2024/03/30 10:02:55;;;;;;;26.83;20.27;;;;;10.20;98908.00;;;;10386466;28;20215;-78
2024/03/30 10:08:01;;;;;;;27.67;19.97;;;;;10.30;98901.00;;;;10350125;28;20306;-78
2024/03/30 10:13:07;;;;;;;30.53;20.47;;;;;10.60;98918.00;;;;10349532;28;20230;-83
2024/03/30 10:18:09;;;;;;;28.60;18.57;;;;;10.60;98945.00;;;;10351952;28;20219;-83
2024/03/30 10:23:10;;;;;;;26.60;18.87;;;;;11.10;98961.00;;;;10335175;28;20226;-83
2024/03/30 10:28:11;;;;;;;24.00;17.17;;;;;11.90;98957.00;;;;10370027;28;20222;-82
2024/03/30 10:33:14;;;;;;;17.73;14.10;;;;;11.60;98965.00;;;;10361184;28;20264;-83
2024/03/30 10:38:15;;;;;;;17.70;12.63;;;;;11.50;98958.00;;;;10346283;28;20313;-82
2024/03/30 10:43:16;;;;;;;16.37;12.53;;;;;11.00;98968.00;;;;10365356;28;20226;-82
2024/03/30 10:48:17;;;;;;;11.57;9.50;;;;;10.90;98985.00;;;;10337217;28;20223;-82
2024/03/30 10:53:19;;;;;;;11.90;9.17;;;;;10.80;99000.00;;;;10356201;28;20301;-83
2024/03/30 10:58:20;;;;;;;13.87;10.07;;;;;11.00;99003.00;;;;10344383;28;20231;-83
2024/03/30 11:03:24;;;;;;;14.07;10.70;;;;;11.20;99015.00;;;;10341026;28;20219;-83
2024/03/30 11:08:26;;;;;;;11.80;9.70;;;;;11.70;99022.00;;;;10346119;28;20219;-82
2024/03/30 11:13:27;;;;;;;12.10;9.33;;;;;12.20;99030.00;;;;10340164;28;20242;-82
2024/03/30 11:18:38;;;;;;;9.83;8.80;;;;;12.30;99051.00;;;;10340451;28;20226;-82
2024/03/30 11:23:59;;;;;;;8.40;7.47;;;;;11.50;99066.00;;;;10371872;28;20641;-82
2024/03/30 11:29:09;;;;;;;7.27;6.53;;;;;11.30;99075.00;;;;10362073;28;20265;-83
2024/03/30 11:34:19;;;;;;;9.70;5.93;;;;;11.30;99069.00;;;;10361931;28;20227;-83
2024/03/30 11:39:27;;;;;;;5.50;4.73;;;;;11.20;99084.00;;;;10350906;28;20231;-83
2024/03/30 11:44:29;;;;;;;4.20;3.80;;;;;10.90;99089.00;;;;10332447;28;20227;-82
2024/03/30 11:49:31;;;;;;;5.70;4.57;;;;;10.60;99091.00;;;;10369727;28;20687;-82
2024/03/30 11:54:34;;;;;;;5.17;4.67;;;;;10.60;99108.00;;;;10341947;28;20223;-83
2024/03/30 11:59:37;;;;;;;6.40;5.80;;;;;10.60;99114.00;;;;10342200;28;20277;-82
2024/03/30 12:04:48;;;;;;;6.70;5.77;;;;;10.60;99136.00;;;;10349942;28;20301;-82
2024/03/30 12:09:50;;;;;;;7.70;6.90;;;;;11.10;99131.00;;;;10343857;28;20222;-82
2024/03/30 12:14:53;;;;;;;7.70;6.57;;;;;11.10;99144.00;;;;10360039;28;20237;-82
2024/03/30 12:19:55;;;;;;;5.33;3.97;;;;;10.60;99140.00;;;;10360522;28;21929;-82
2024/03/30 12:24:57;;;;;;;3.27;2.97;;;;;10.80;99135.00;;;;10334105;28;20222;-82
2024/03/30 12:29:58;;;;;;;4.53;3.67;;;;;11.20;99159.00;;;;10362326;28;20242;-79
2024/03/30 12:34:59;;;;;;;5.10;4.30;;;;;11.50;99162.00;;;;10348490;28;20230;-78
2024/03/30 12:40:02;;;;;;;4.83;4.43;;;;;11.20;99166.00;;;;10349005;28;20221;-78
2024/03/30 12:45:03;;;;;;;4.23;3.63;;;;;11.70;99168.00;;;;10353647;28;20894;-78
2024/03/30 12:50:05;;;;;;;6.70;3.50;;;;;12.20;99173.00;;;;10364122;28;20250;-78
2024/03/30 12:55:07;;;;;;;6.40;3.50;;;;;12.40;99194.00;;;;10358480;28;20233;-78
2024/03/30 13:00:16;;;;;;;4.50;3.13;;;;;12.10;99189.00;;;;10342758;28;21042;-78
2024/03/30 13:05:16;;;;;;;3.53;3.00;;;;;12.20;99204.00;;;;10362594;28;20251;-78
2024/03/30 13:10:19;;;;;;;3.23;2.80;;;;;12.50;99183.00;;;;10336012;28;20218;-78
2024/03/30 13:15:21;;;;;;;4.63;2.90;;;;;13.20;99191.00;;;;10338724;28;20230;-78
2024/03/30 13:20:24;;;;;;;3.50;2.60;;;;;13.30;99203.00;;;;10326930;28;20234;-78
2024/03/30 13:25:25;;;;;;;5.00;3.20;;;;;13.10;99208.00;;;;10348968;28;20251;-78
2024/03/30 13:30:26;;;;;;;4.33;3.27;;;;;13.50;99224.00;;;;10350255;28;20809;-78
2024/03/30 13:35:27;;;;;;;4.53;3.17;;;;;13.00;99226.00;;;;10348097;28;20223;-78
2024/03/30 13:40:28;;;;;;;3.27;2.70;;;;;12.60;99244.00;;;;10340832;28;20238;-78
2024/03/30 13:45:31;;;;;;;4.77;2.40;;;;;12.50;99235.00;;;;10378625;28;20222;-78
2024/03/30 13:50:33;;;;;;;3.33;2.73;;;;;12.40;99243.00;;;;10360058;28;20241;-78
2024/03/30 13:55:34;;;;;;;2.83;2.57;;;;;12.00;99249.00;;;;10378976;28;20240;-78
2024/03/30 14:00:39;;;;;;;4.33;3.37;;;;;12.60;99252.00;;;;10345210;28;20221;-78
2024/03/30 14:05:40;;;;;;;4.53;3.80;;;;;13.20;99265.00;;;;10367943;28;20214;-78
2024/03/30 14:10:41;;;;;;;6.53;3.70;;;;;13.50;99265.00;;;;10377655;28;20226;-78
2024/03/30 14:15:42;;;;;;;6.20;5.03;;;;;13.80;99270.00;;;;10393356;28;20593;-77
2024/03/30 14:20:43;;;;;;;5.10;4.60;;;;;13.70;99275.00;;;;10402034;28;20230;-78
2024/03/30 14:25:46;;;;;;;5.50;3.80;;;;;13.10;99288.00;;;;10402820;28;20252;-78
2024/03/30 14:30:47;;;;;;;4.50;4.00;;;;;12.80;99287.00;;;;10368707;28;20234;-77
2024/03/30 14:35:49;;;;;;;5.70;4.67;;;;;12.10;99287.00;;;;10398201;28;20786;-78
2024/03/30 14:40:49;;;;;;;3.33;2.77;;;;;11.70;99287.00;;;;10360970;28;20223;-78
2024/03/30 14:45:50;;;;;;;3.97;2.60;;;;;12.00;99286.00;;;;10375160;28;20790;-78
2024/03/30 14:50:51;;;;;;;5.13;4.50;;;;;12.60;99295.00;;;;10398184;28;20592;-82
2024/03/30 14:55:57;;;;;;;4.07;2.87;;;;;12.70;99290.00;;;;10382872;28;20222;-83
2024/03/30 15:00:59;;;;;;;4.07;2.70;;;;;12.50;99310.00;;;;10376686;28;20221;-83
2024/03/30 15:06:03;;;;;;;4.23;2.67;;;;;12.50;99299.00;;;;10384031;28;20219;-82
2024/03/30 15:11:09;;;;;;;2.73;2.13;;;;;12.50;99298.00;;;;10408578;28;20324;-84
2024/03/30 15:16:10;;;;;;;4.57;2.80;;;;;12.40;99304.00;;;;10368574;28;20222;-83
2024/03/30 15:21:11;;;;;;;2.90;2.60;;;;;12.30;99299.00;;;;10359008;28;20214;-82
2024/03/30 15:26:15;;;;;;;3.00;2.07;;;;;12.30;99292.00;;;;10375842;28;20666;-83
2024/03/30 15:36:35;;;;;;;2.03;1.73;;;;;12.50;99291.00;;;;10380931;28;20615;-83
2024/03/30 15:41:36;;;;;;;2.37;2.17;;;;;12.60;99296.00;;;;10419606;28;20214;-82
2024/03/30 15:46:37;;;;;;;2.63;2.30;;;;;12.60;99295.00;;;;10378031;28;20219;-82
2024/03/30 15:51:38;;;;;;;2.53;1.90;;;;;12.60;99295.00;;;;10370930;28;20213;-81
2024/03/30 15:56:39;;;;;;;3.83;1.90;;;;;12.40;99305.00;;;;10388072;28;20285;-82
2024/03/30 16:01:40;;;;;;;3.40;1.93;;;;;12.30;99296.00;;;;10404850;28;20234;-86
2024/03/30 16:06:41;;;;;;;2.60;2.40;;;;;12.20;99309.00;;;;10370889;28;20332;-84
2024/03/30 16:11:42;;;;;;;4.03;2.80;;;;;12.20;99307.00;;;;10375228;28;20787;-84
2024/03/30 16:16:43;;;;;;;4.30;3.30;;;;;12.30;99307.00;;;;10385634;28;20238;-83
2024/03/30 16:21:44;;;;;;;4.50;3.10;;;;;12.10;99312.00;;;;10414644;28;20226;-84
2024/03/30 16:26:45;;;;;;;5.07;3.63;;;;;12.00;99308.00;;;;10367787;28;20213;-84
2024/03/30 16:31:47;;;;;;;3.47;3.17;;;;;11.80;99315.00;;;;10378208;28;20226;-84
2024/03/30 16:36:48;;;;;;;3.53;2.83;;;;;11.80;99306.00;;;;10355575;28;20291;-84
2024/03/30 16:41:50;;;;;;;3.47;2.80;;;;;11.70;99291.00;;;;10380117;28;20219;-83
2024/03/30 16:46:51;;;;;;;4.53;3.00;;;;;11.70;99296.00;;;;10355496;28;20226;-84
2024/03/30 16:51:52;;;;;;;4.23;2.90;;;;;11.40;99289.00;;;;10356213;28;20257;-82
2024/03/30 16:56:53;;;;;;;4.80;2.80;;;;;11.20;99305.00;;;;10363041;28;20301;-82
2024/03/30 17:01:54;;;;;;;3.70;3.23;;;;;11.10;99291.00;;;;10374059;28;20214;-83
2024/03/30 17:06:55;;;;;;;5.03;3.83;;;;;10.90;99292.00;;;;10370529;28;20780;-83
2024/03/30 17:11:56;;;;;;;3.33;2.83;;;;;10.80;99304.00;;;;10388510;28;20218;-75
2024/03/30 17:16:57;;;;;;;4.87;3.87;;;;;10.60;99294.00;;;;10355357;28;20228;-76
2024/03/30 17:21:58;;;;;;;5.70;4.57;;;;;10.50;99312.00;;;;10390190;28;20619;-75
2024/03/30 17:26:59;;;;;;;6.93;4.97;;;;;10.40;99304.00;;;;10374273;28;20255;-74
2024/03/30 17:32:01;;;;;;;7.67;4.63;;;;;10.30;99292.00;;;;10388728;28;20229;-76
2024/03/30 17:37:03;;;;;;;8.43;5.80;;;;;10.20;99304.00;;;;10380058;28;20229;-76
2024/03/30 17:42:04;;;;;;;6.77;5.43;;;;;10.10;99308.00;;;;10381092;28;20347;-76
2024/03/30 17:47:05;;;;;;;6.80;3.90;;;;;10.00;99307.00;;;;10376296;28;20221;-75
2024/03/30 17:52:06;;;;;;;5.03;4.13;;;;;9.80;99310.00;;;;10388653;28;20275;-75
2024/03/30 17:57:08;;;;;;;5.87;3.77;;;;;9.70;99309.00;;;;10378429;28;20225;-75
2024/03/30 18:02:09;;;;;;;4.50;3.60;;;;;9.50;99304.00;;;;10383760;28;20785;-76
2024/03/30 18:07:10;;;;;;;5.63;4.57;;;;;9.40;99310.00;;;;10379418;28;20313;-76
2024/03/30 18:12:11;;;;;;;5.50;4.70;;;;;9.20;99323.00;;;;10365740;28;20221;-76
2024/03/30 18:17:12;;;;;;;7.73;6.10;;;;;9.10;99326.00;;;;10382898;28;20229;-75
2024/03/30 18:22:13;;;;;;;7.83;5.37;;;;;8.90;99337.00;;;;10377842;28;20677;-80
2024/03/30 18:27:14;;;;;;;5.43;4.23;;;;;8.70;99343.00;;;;10362104;28;20260;-79
2024/03/30 18:32:15;;;;;;;6.03;4.67;;;;;8.60;99365.00;;;;10384432;28;20213;-80
2024/03/30 18:37:16;;;;;;;4.77;3.43;;;;;8.40;99363.00;;;;10383776;28;20218;-79
2024/03/30 18:42:17;;;;;;;9.27;6.40;;;;;8.20;99350.00;;;;10394663;28;20223;-80
2024/03/30 18:47:18;;;;;;;5.03;3.30;;;;;8.10;99371.00;;;;10380828;28;20229;-80
2024/03/30 18:52:19;;;;;;;7.60;4.33;;;;;8.00;99376.00;;;;10382901;28;20554;-80
2024/03/30 18:57:19;;;;;;;6.30;4.90;;;;;8.00;99364.00;;;;10389805;28;20229;-80
2024/03/30 19:02:20;;;;;;;8.67;4.77;;;;;7.90;99358.00;;;;10383726;28;20741;-80
2024/03/30 19:07:22;;;;;;;6.50;4.53;;;;;7.80;99358.00;;;;10395118;28;20217;-81
2024/03/30 19:12:23;;;;;;;5.10;4.00;;;;;7.60;99377.00;;;;10381847;28;20701;-80
2024/03/30 19:17:25;;;;;;;7.67;4.90;;;;;7.50;99388.00;;;;10358435;28;20234;-79
2024/03/30 19:22:26;;;;;;;10.13;7.17;;;;;7.50;99381.00;;;;10381960;28;20222;-79
2024/03/30 19:27:28;;;;;;;7.57;6.73;;;;;7.40;99379.00;;;;10362440;28;20265;-80
2024/03/30 19:32:29;;;;;;;10.70;6.77;;;;;7.40;99385.00;;;;10366247;28;20785;-80
2024/03/30 19:37:30;;;;;;;8.43;6.77;;;;;7.30;99376.00;;;;10406300;28;20220;-79
2024/03/30 19:42:31;;;;;;;10.07;6.37;;;;;7.20;99380.00;;;;10391569;28;20209;-79
2024/03/30 19:47:32;;;;;;;7.87;6.33;;;;;7.00;99378.00;;;;10367368;28;20221;-80
2024/03/30 19:52:33;;;;;;;8.30;6.33;;;;;6.90;99380.00;;;;10374343;28;20309;-80
2024/03/30 19:57:34;;;;;;;8.20;7.17;;;;;6.80;99396.00;;;;10377745;28;20230;-80
2024/03/30 20:02:35;;;;;;;9.07;7.30;;;;;6.80;99387.00;;;;10383392;28;20221;-80
2024/03/30 20:07:36;;;;;;;12.27;8.53;;;;;6.70;99400.00;;;;10379661;28;20218;-80
2024/03/30 20:12:37;;;;;;;9.53;7.63;;;;;6.70;99403.00;;;;10362206;28;20931;-80
2024/03/30 20:17:40;;;;;;;9.93;7.57;;;;;6.70;99400.00;;;;10401454;28;20261;-79
2024/03/30 20:22:41;;;;;;;8.87;7.13;;;;;6.60;99394.00;;;;10363904;28;20238;-80
2024/03/30 20:27:42;;;;;;;6.77;5.87;;;;;6.40;99392.00;;;;10401180;28;20231;-79
2024/03/30 20:32:43;;;;;;;7.83;6.83;;;;;6.30;99407.00;;;;10391013;28;20652;-80
2024/03/30 20:37:44;;;;;;;9.47;7.93;;;;;6.20;99406.00;;;;10373890;28;20225;-79
2024/03/30 20:42:51;;;;;;;13.03;9.47;;;;;6.20;99416.00;;;;10348432;28;20564;-80
2024/03/30 20:47:53;;;;;;;13.27;9.77;;;;;6.20;99423.00;;;;10357824;28;20229;-80
2024/03/30 20:52:53;;;;;;;11.77;9.03;;;;;6.20;99414.00;;;;10346278;28;20947;-76
2024/03/30 20:57:55;;;;;;;13.70;10.87;;;;;6.20;99422.00;;;;10371593;28;20260;-78
2024/03/30 21:03:00;;;;;;;17.50;11.63;;;;;6.20;99429.00;;;;10366388;28;20276;-77
2024/03/30 21:08:02;;;;;;;14.17;10.57;;;;;6.20;99428.00;;;;10385461;28;20221;-77
2024/03/30 21:13:03;;;;;;;16.30;11.90;;;;;6.20;99424.00;;;;10370945;28;20244;-77
2024/03/30 21:18:04;;;;;;;13.60;11.40;;;;;6.20;99430.00;;;;10352445;28;20226;-77
2024/03/30 21:23:05;;;;;;;17.80;12.53;;;;;6.20;99422.00;;;;10375189;28;20253;-78
2024/03/30 21:28:06;;;;;;;15.90;12.70;;;;;6.30;99420.00;;;;10368255;28;20229;-76
2024/03/30 21:33:07;;;;;;;21.43;13.30;;;;;6.20;99413.00;;;;10393327;28;20225;-77
2024/03/30 21:38:08;;;;;;;14.70;12.17;;;;;6.20;99413.00;;;;10375679;28;20237;-77
2024/03/30 21:43:09;;;;;;;17.77;13.10;;;;;6.20;99412.00;;;;10370920;28;20588;-76
2024/03/30 21:48:10;;;;;;;15.40;12.63;;;;;6.20;99405.00;;;;10376928;28;20221;-78
2024/03/30 21:53:11;;;;;;;21.27;14.70;;;;;6.30;99411.00;;;;10398263;28;20692;-77
2024/03/30 21:58:12;;;;;;;20.87;15.23;;;;;6.40;99414.00;;;;10360761;28;20642;-77
2024/03/30 22:03:13;;;;;;;18.80;13.70;;;;;6.40;99413.00;;;;10368371;28;20220;-77
2024/03/30 22:08:14;;;;;;;17.37;12.57;;;;;6.40;99411.00;;;;10380115;28;20229;-78
2024/03/30 22:13:15;;;;;;;16.73;13.13;;;;;6.40;99415.00;;;;10396476;28;20257;-77
2024/03/30 22:18:16;;;;;;;19.83;14.23;;;;;6.30;99411.00;;;;10407999;28;20279;-77
2024/03/30 22:23:17;;;;;;;21.50;15.40;;;;;6.20;99406.00;;;;10380351;28;20278;-77
2024/03/30 22:28:18;;;;;;;18.47;15.03;;;;;6.20;99401.00;;;;10368192;28;21030;-78
2024/03/30 22:33:19;;;;;;;31.70;22.37;;;;;6.10;99403.00;;;;10371635;28;20897;-77
2024/03/30 22:38:20;;;;;;;24.97;17.70;;;;;6.10;99403.00;;;;10383029;28;20630;-77
2024/03/30 22:43:21;;;;;;;21.43;14.87;;;;;6.00;99388.00;;;;10370408;28;20210;-77
2024/03/30 22:48:22;;;;;;;21.67;14.67;;;;;5.90;99380.00;;;;10371724;28;20226;-78
2024/03/30 22:53:23;;;;;;;23.83;17.30;;;;;5.90;99389.00;;;;10370558;28;20221;-77
2024/03/30 22:58:25;;;;;;;20.87;16.83;;;;;5.80;99379.00;;;;10362397;28;20226;-77
2024/03/30 23:03:27;;;;;;;22.37;16.50;;;;;5.80;99378.00;;;;10367972;28;20225;-77
2024/03/30 23:08:29;;;;;;;19.97;15.50;;;;;5.80;99376.00;;;;10376382;28;20226;-77
2024/03/30 23:13:32;;;;;;;19.77;15.33;;;;;5.80;99373.00;;;;10372182;28;20218;-85
2024/03/30 23:18:36;;;;;;;19.10;14.90;;;;;5.90;99372.00;;;;10377425;28;20227;-85
2024/03/30 23:23:37;;;;;;;18.63;14.93;;;;;5.90;99373.00;;;;10365117;28;20214;-85
2024/03/30 23:28:37;;;;;;;19.07;15.53;;;;;5.80;99366.00;;;;10398703;28;20440;-79
2024/03/30 23:33:38;;;;;;;18.83;16.03;;;;;5.80;99356.00;;;;10415671;28;20298;-83
2024/03/30 23:38:39;;;;;;;24.40;19.17;;;;;5.70;99349.00;;;;10373868;28;20227;-85
2024/03/30 23:43:40;;;;;;;21.90;16.10;;;;;5.60;99337.00;;;;10381261;28;20253;-86
2024/03/30 23:48:41;;;;;;;23.73;14.83;;;;;5.40;99337.00;;;;10378277;28;20218;-84
2024/03/30 23:53:42;;;;;;;23.87;18.30;;;;;5.30;99344.00;;;;10409153;28;20251;-85
2024/03/30 23:58:43;;;;;;;24.87;18.20;;;;;5.20;99324.00;;;;10380796;28;20279;-86
